createdAt,value
2018-03-15T00:00:12.816Z,99307.97
2018-03-15T00:02:40.297Z,99309.17
2018-03-15T00:05:07.737Z,99305.65
2018-03-15T00:07:35.352Z,99309.53
2018-03-15T00:10:02.797Z,99305.33
2018-03-15T00:12:30.241Z,99306.63
2018-03-15T00:14:57.700Z,99303.20
2018-03-15T00:17:25.137Z,99300.25
2018-03-15T00:19:52.621Z,99308.31
2018-03-15T00:22:20.065Z,99297.19
2018-03-15T00:24:47.505Z,99297.73
2018-03-15T00:27:15.063Z,99294.21
2018-03-15T00:29:42.516Z,99295.92
2018-03-15T00:32:10.280Z,99294.53
2018-03-15T00:34:37.729Z,99295.64
2018-03-15T00:37:05.169Z,99301.52
2018-03-15T00:39:32.637Z,99304.34
2018-03-15T00:42:00.093Z,99300.87
2018-03-15T00:44:27.794Z,99301.50
2018-03-15T00:46:55.254Z,99300.87
2018-03-15T00:49:22.714Z,99300.86
2018-03-15T00:51:50.174Z,99306.44
2018-03-15T00:54:17.621Z,99301.14
2018-03-15T00:56:45.099Z,99294.95
2018-03-15T00:59:12.565Z,99289.59
2018-03-15T01:01:40.005Z,99286.48
2018-03-15T01:04:07.481Z,99282.20
2018-03-15T01:06:34.937Z,99281.84
2018-03-15T01:09:02.448Z,99281.00
2018-03-15T01:11:29.901Z,99280.08
2018-03-15T01:13:57.373Z,99287.13
2018-03-15T01:16:24.855Z,99282.44
2018-03-15T01:18:52.301Z,99279.78
2018-03-15T01:21:19.941Z,99265.94
2018-03-15T01:23:47.385Z,99263.41
2018-03-15T01:26:14.845Z,99265.08
2018-03-15T01:28:42.329Z,99262.40
2018-03-15T01:31:09.777Z,99262.64
2018-03-15T01:33:37.397Z,99253.94
2018-03-15T01:36:04.841Z,99246.51
2018-03-15T01:38:32.285Z,99251.94
2018-03-15T01:40:59.749Z,99244.27
2018-03-15T01:43:27.209Z,99237.98
2018-03-15T01:45:54.696Z,99228.09
2018-03-15T01:48:22.177Z,99216.92
2018-03-15T01:50:49.621Z,99211.12
2018-03-15T01:53:17.081Z,99204.41
2018-03-15T01:55:44.521Z,99202.02
2018-03-15T01:58:12.253Z,99201.23
2018-03-15T02:00:39.714Z,99203.08
2018-03-15T02:03:07.164Z,99197.38
2018-03-15T02:05:34.629Z,99200.31
2018-03-15T02:08:02.085Z,99194.75
2018-03-15T02:10:29.776Z,99196.00
2018-03-15T02:12:57.230Z,99186.87
2018-03-15T02:15:24.691Z,99185.42
2018-03-15T02:17:52.176Z,99183.00
2018-03-15T02:20:19.629Z,99182.04
2018-03-15T02:22:47.117Z,99175.73
2018-03-15T02:25:14.573Z,99174.14
2018-03-15T02:27:42.017Z,99163.73
2018-03-15T02:30:09.487Z,99161.48
2018-03-15T02:32:36.944Z,99158.83
2018-03-15T02:35:04.655Z,99162.13
2018-03-15T02:37:32.094Z,99161.82
2018-03-15T02:39:59.566Z,99158.42
2018-03-15T02:42:27.037Z,99162.84
2018-03-15T02:44:54.481Z,99169.55
2018-03-15T02:47:22.233Z,99174.32
2018-03-15T02:49:49.682Z,99178.27
2018-03-15T02:52:17.136Z,99180.47
2018-03-15T02:54:44.618Z,99172.96
2018-03-15T02:57:12.061Z,99170.53
2018-03-15T02:59:39.533Z,99164.28
2018-03-15T03:02:06.979Z,99163.81
2018-03-15T03:04:34.422Z,99152.09
2018-03-15T03:07:01.897Z,99156.98
2018-03-15T03:09:29.357Z,99139.83
2018-03-15T03:11:56.817Z,99132.27
2018-03-15T03:14:24.257Z,99136.08
2018-03-15T03:16:51.697Z,99124.77
2018-03-15T03:19:19.169Z,99118.64
2018-03-15T03:21:46.617Z,99117.40
2018-03-15T03:24:14.283Z,99117.09
2018-03-15T03:26:41.706Z,99117.47
2018-03-15T03:29:09.149Z,99104.17
2018-03-15T03:31:36.643Z,99103.13
2018-03-15T03:34:04.092Z,99113.27
2018-03-15T03:36:31.669Z,99113.92
2018-03-15T03:38:59.128Z,99096.45
2018-03-15T03:41:26.564Z,99089.73
2018-03-15T03:43:54.029Z,99087.09
2018-03-15T03:46:21.499Z,99078.23
2018-03-15T03:48:49.001Z,99075.52
2018-03-15T03:51:16.440Z,99076.67
2018-03-15T03:53:43.884Z,99077.49
2018-03-15T03:56:11.361Z,99079.75
2018-03-15T03:58:38.801Z,99076.15
2018-03-15T04:01:06.385Z,99071.32
2018-03-15T04:03:33.833Z,99069.98
2018-03-15T04:06:01.273Z,99073.53
2018-03-15T04:08:28.770Z,99069.05
2018-03-15T04:10:56.215Z,99069.80
2018-03-15T04:13:23.707Z,99058.09
2018-03-15T04:15:51.157Z,99043.83
2018-03-15T04:18:18.605Z,99048.66
2018-03-15T04:20:46.073Z,99054.94
2018-03-15T04:23:13.518Z,99043.34
2018-03-15T04:25:40.985Z,99040.03
2018-03-15T04:28:08.425Z,99034.45
2018-03-15T04:30:35.877Z,99050.53
2018-03-15T04:33:03.340Z,99047.77
2018-03-15T04:35:30.782Z,99042.93
2018-03-15T04:37:58.253Z,99036.48
2018-03-15T04:40:25.754Z,99028.43
2018-03-15T04:42:53.197Z,99023.33
2018-03-15T04:45:20.658Z,99025.14
2018-03-15T04:47:48.101Z,99015.92
2018-03-15T04:50:15.673Z,98997.53
2018-03-15T04:52:43.117Z,98988.44
2018-03-15T04:55:10.585Z,98978.39
2018-03-15T04:57:38.053Z,98968.28
2018-03-15T05:00:05.499Z,98961.94
2018-03-15T05:02:33.137Z,98947.47
2018-03-15T05:05:00.585Z,98952.98
2018-03-15T05:07:28.057Z,98951.94
2018-03-15T05:09:55.537Z,98957.66
2018-03-15T05:12:22.984Z,98970.84
2018-03-15T05:14:50.801Z,98973.33
2018-03-15T05:17:18.241Z,98971.72
2018-03-15T05:19:45.706Z,98988.34
2018-03-15T05:22:13.174Z,98988.14
2018-03-15T05:24:40.638Z,98974.83
2018-03-15T05:27:08.113Z,98969.33
2018-03-15T05:29:35.561Z,98965.28
2018-03-15T05:32:03.030Z,98950.41
2018-03-15T05:34:30.493Z,98934.25
2018-03-15T05:36:57.937Z,98929.89
2018-03-15T05:39:25.577Z,98933.73
2018-03-15T05:41:53.021Z,98926.30
2018-03-15T05:44:20.464Z,98925.31
2018-03-15T05:46:47.949Z,98930.97
2018-03-15T05:49:15.398Z,98934.44
2018-03-15T05:51:43.091Z,98945.45
2018-03-15T05:54:10.529Z,98954.65
2018-03-15T05:56:37.970Z,98940.89
2018-03-15T05:59:05.433Z,98939.41
2018-03-15T06:01:32.882Z,98940.42
2018-03-15T06:04:00.790Z,98939.20
2018-03-15T06:06:28.229Z,98932.05
2018-03-15T06:08:55.678Z,98928.04
2018-03-15T06:11:23.157Z,98923.53
2018-03-15T06:13:50.599Z,98915.27
2018-03-15T06:16:18.441Z,98916.93
2018-03-15T06:18:45.882Z,98915.20
2018-03-15T06:21:13.331Z,98909.34
2018-03-15T06:23:40.797Z,98909.72
2018-03-15T06:26:08.270Z,98894.92
2018-03-15T06:28:35.828Z,98900.17
2018-03-15T06:31:03.266Z,98899.31
2018-03-15T06:33:30.760Z,98889.37
2018-03-15T06:35:58.225Z,98895.48
2018-03-15T06:38:25.669Z,98886.80
2018-03-15T06:40:53.149Z,98884.88
2018-03-15T06:43:20.594Z,98886.41
2018-03-15T06:45:48.092Z,98891.09
2018-03-15T06:48:15.874Z,98892.11
2018-03-15T06:50:43.317Z,98897.36
2018-03-15T06:53:11.001Z,98886.52
2018-03-15T06:55:38.445Z,98883.47
2018-03-15T06:58:05.891Z,98891.18
2018-03-15T07:00:33.353Z,98884.32
2018-03-15T07:03:00.821Z,98879.86
2018-03-15T07:05:28.306Z,98878.51
2018-03-15T07:07:55.749Z,98887.95
2018-03-15T07:10:23.204Z,98883.84
2018-03-15T07:12:50.686Z,98884.69
2018-03-15T07:15:18.133Z,98885.95
2018-03-15T07:17:45.702Z,98881.98
2018-03-15T07:20:13.168Z,98877.16
2018-03-15T07:22:40.631Z,98873.92
2018-03-15T07:25:08.093Z,98872.91
2018-03-15T07:27:35.573Z,98874.50
2018-03-15T07:30:03.042Z,98876.19
2018-03-15T07:32:30.497Z,98883.95
2018-03-15T07:34:57.957Z,98877.14
2018-03-15T07:37:25.441Z,98880.48
2018-03-15T07:39:52.881Z,98867.61
2018-03-15T07:42:20.459Z,98862.21
2018-03-15T07:44:47.911Z,98865.44
2018-03-15T07:47:15.369Z,98870.92
2018-03-15T07:49:42.849Z,98874.08
2018-03-15T07:52:10.329Z,98870.69
2018-03-15T07:54:38.145Z,98866.77
2018-03-15T07:57:05.610Z,98860.84
2018-03-15T07:59:33.061Z,98863.03
2018-03-15T08:02:00.576Z,98865.31
2018-03-15T08:04:28.013Z,98862.78
2018-03-15T08:06:55.490Z,98861.73
2018-03-15T08:09:22.940Z,98859.45
2018-03-15T08:11:50.392Z,98856.94
2018-03-15T08:14:17.865Z,98852.63
2018-03-15T08:16:45.310Z,98845.39
2018-03-15T08:19:12.953Z,98834.73
2018-03-15T08:21:40.394Z,98836.91
2018-03-15T08:24:07.837Z,98836.26
2018-03-15T08:26:35.297Z,98832.28
2018-03-15T08:29:02.753Z,98844.87
2018-03-15T08:31:30.587Z,98831.74
2018-03-15T08:33:58.040Z,98838.91
2018-03-15T08:36:25.481Z,98836.19
2018-03-15T08:38:52.997Z,98829.77
2018-03-15T08:41:20.411Z,98830.77
2018-03-15T08:43:47.924Z,98844.04
2018-03-15T08:46:15.395Z,98824.64
2018-03-15T08:48:42.838Z,98816.11
2018-03-15T08:51:10.305Z,98815.22
2018-03-15T08:53:37.784Z,98813.70
2018-03-15T08:56:05.249Z,98804.90
2018-03-15T08:58:32.697Z,98810.75
2018-03-15T09:01:00.153Z,98800.28
2018-03-15T09:03:27.625Z,98795.25
2018-03-15T09:05:55.133Z,98776.69
2018-03-15T09:08:22.750Z,98786.27
2018-03-15T09:10:50.202Z,98771.21
2018-03-15T09:13:17.665Z,98768.13
2018-03-15T09:15:45.137Z,98767.02
2018-03-15T09:18:12.582Z,98768.00
2018-03-15T09:20:40.056Z,98761.55
2018-03-15T09:23:07.532Z,98759.84
2018-03-15T09:25:34.969Z,98755.45
2018-03-15T09:28:02.429Z,98753.11
2018-03-15T09:30:29.865Z,98762.84
2018-03-15T09:32:57.377Z,98771.33
2018-03-15T09:35:24.859Z,98755.34
2018-03-15T09:37:52.339Z,98750.59
2018-03-15T09:40:19.830Z,98741.84
2018-03-15T09:42:47.288Z,98739.88
2018-03-15T09:45:15.014Z,98745.45
2018-03-15T09:47:42.481Z,98736.73
2018-03-15T09:50:09.957Z,98736.41
2018-03-15T09:52:37.441Z,98725.64
2018-03-15T09:55:04.909Z,98714.33
2018-03-15T09:57:32.406Z,98716.94
2018-03-15T09:59:59.870Z,98736.50
2018-03-15T10:02:27.338Z,98719.41
2018-03-15T10:04:54.821Z,98713.64
2018-03-15T10:07:22.286Z,98708.73
2018-03-15T10:09:49.777Z,98708.50
2018-03-15T10:12:17.242Z,98710.45
2018-03-15T10:14:44.705Z,98705.33
2018-03-15T10:17:12.190Z,98701.38
2018-03-15T10:19:39.663Z,98685.62
2018-03-15T10:22:07.145Z,98690.94
2018-03-15T10:24:34.623Z,98673.91
2018-03-15T10:27:02.111Z,98669.81
2018-03-15T10:29:29.596Z,98669.95
2018-03-15T10:31:57.084Z,98659.45
2018-03-15T10:34:24.597Z,98656.56
2018-03-15T10:36:52.065Z,98656.83
2018-03-15T10:39:24.413Z,98662.58
2018-03-15T10:41:51.921Z,98667.11
2018-03-15T10:44:19.401Z,98668.73
2018-03-15T10:46:46.880Z,98663.31
2018-03-15T10:49:14.345Z,98672.67
2018-03-15T10:51:41.849Z,98670.46
2018-03-15T10:54:09.321Z,98669.41
2018-03-15T10:56:36.802Z,98664.66
2018-03-15T10:59:04.290Z,98662.66
2018-03-15T11:01:37.361Z,98673.54
2018-03-15T11:04:10.379Z,98674.70
2018-03-15T11:09:44.494Z,98680.31
2018-03-15T11:12:11.947Z,98682.52
2018-03-15T11:14:39.654Z,98667.25
2018-03-15T11:17:07.134Z,98672.75
2018-03-15T11:19:34.595Z,98666.30
2018-03-15T11:22:02.145Z,98662.85
2018-03-15T11:24:29.618Z,98651.11
2018-03-15T11:27:00.301Z,98640.30
2018-03-15T11:29:27.765Z,98643.63
2018-03-15T11:31:55.233Z,98631.67
2018-03-15T11:34:22.713Z,98621.06
2018-03-15T11:36:50.174Z,98621.84
2018-03-15T11:39:17.793Z,98605.77
2018-03-15T11:41:45.249Z,98604.46
2018-03-15T11:44:12.733Z,98595.35
2018-03-15T11:46:40.209Z,98585.84
2018-03-15T11:49:07.665Z,98585.89
2018-03-15T11:51:35.390Z,98589.03
2018-03-15T11:54:02.846Z,98576.06
2018-03-15T11:56:30.311Z,98579.70
2018-03-15T11:58:57.817Z,98568.71
2018-03-15T12:01:25.273Z,98557.49
2018-03-15T12:03:52.785Z,98552.87
2018-03-15T12:06:20.241Z,98543.88
2018-03-15T12:08:47.710Z,98539.67
2018-03-15T12:11:15.185Z,98536.47
2018-03-15T12:13:42.646Z,98526.50
2018-03-15T12:16:10.138Z,98526.66
2018-03-15T12:18:37.585Z,98519.31
2018-03-15T12:21:05.058Z,98523.81
2018-03-15T12:23:32.546Z,98500.77
2018-03-15T12:25:59.993Z,98499.89
2018-03-15T12:28:27.604Z,98502.61
2018-03-15T12:30:55.066Z,98494.66
2018-03-15T12:33:22.511Z,98494.49
2018-03-15T12:35:49.980Z,98485.81
2018-03-15T12:38:17.453Z,98485.14
2018-03-15T12:40:45.046Z,98482.41
2018-03-15T12:43:12.521Z,98481.82
2018-03-15T12:45:39.974Z,98477.80
2018-03-15T12:48:07.441Z,98466.31
2018-03-15T12:50:34.889Z,98447.40
2018-03-15T12:53:02.610Z,98436.96
2018-03-15T12:55:30.059Z,98446.97
2018-03-15T12:57:57.506Z,98447.20
2018-03-15T13:00:24.974Z,98421.52
2018-03-15T13:02:52.449Z,98438.73
2018-03-15T13:05:19.909Z,98421.45
2018-03-15T13:07:47.350Z,98421.78
2018-03-15T13:10:14.797Z,98419.93
2018-03-15T13:12:42.271Z,98421.42
2018-03-15T13:15:09.709Z,98418.67
2018-03-15T13:17:37.169Z,98425.24
2018-03-15T13:20:04.657Z,98419.50
2018-03-15T13:22:32.096Z,98422.73
2018-03-15T13:24:59.565Z,98408.03
2018-03-15T13:27:27.006Z,98400.08
2018-03-15T13:29:54.637Z,98397.83
2018-03-15T13:32:22.074Z,98401.00
2018-03-15T13:34:49.554Z,98408.36
2018-03-15T13:37:17.029Z,98402.33
2018-03-15T13:39:44.473Z,98397.53
2018-03-15T13:42:12.093Z,98398.84
2018-03-15T13:44:39.554Z,98388.80
2018-03-15T13:47:06.999Z,98396.16
2018-03-15T13:49:34.477Z,98381.02
2018-03-15T13:52:01.982Z,98382.76
2018-03-15T13:54:29.434Z,98386.65
2018-03-15T13:56:56.885Z,98371.56
2018-03-15T13:59:24.333Z,98374.30
2018-03-15T14:01:51.805Z,98384.94
2018-03-15T14:04:19.242Z,98374.26
2018-03-15T14:06:46.717Z,98371.80
2018-03-15T14:09:14.203Z,98364.16
2018-03-15T14:11:41.661Z,98366.98
2018-03-15T14:14:09.153Z,98358.06
2018-03-15T14:16:36.606Z,98360.88
2018-03-15T14:19:04.466Z,98352.14
2018-03-15T14:21:31.933Z,98357.53
2018-03-15T14:23:59.382Z,98348.76
2018-03-15T14:26:26.857Z,98358.62
2018-03-15T14:28:54.302Z,98367.08
2018-03-15T14:31:21.901Z,98359.09
2018-03-15T14:33:49.348Z,98354.81
2018-03-15T14:36:16.794Z,98364.31
2018-03-15T14:38:44.317Z,98360.01
2018-03-15T14:41:11.729Z,98360.21
2018-03-15T14:43:39.457Z,98353.89
2018-03-15T14:46:06.902Z,98357.63
2018-03-15T14:48:34.339Z,98363.05
2018-03-15T14:51:01.817Z,98350.32
2018-03-15T14:53:29.295Z,98358.45
2018-03-15T14:55:56.789Z,98358.41
2018-03-15T14:58:24.243Z,98351.22
2018-03-15T15:00:51.705Z,98352.83
2018-03-15T15:03:19.169Z,98348.62
2018-03-15T15:05:46.606Z,98343.67
2018-03-15T15:08:14.090Z,98343.14
2018-03-15T15:10:41.560Z,98340.70
2018-03-15T15:13:09.009Z,98343.52
2018-03-15T15:15:36.485Z,98352.34
2018-03-15T15:18:03.934Z,98349.64
2018-03-15T15:20:31.599Z,98342.92
2018-03-15T15:22:59.115Z,98343.41
2018-03-15T15:25:26.569Z,98333.08
2018-03-15T15:27:54.035Z,98335.45
2018-03-15T15:30:21.489Z,98338.32
2018-03-15T15:32:49.161Z,98337.41
2018-03-15T15:35:16.636Z,98335.61
2018-03-15T15:37:44.094Z,98335.97
2018-03-15T15:40:11.560Z,98334.07
2018-03-15T15:42:39.001Z,98338.18
2018-03-15T15:45:06.726Z,98341.16
2018-03-15T15:47:34.169Z,98342.64
2018-03-15T15:50:01.613Z,98343.38
2018-03-15T15:52:29.089Z,98342.43
2018-03-15T15:54:56.537Z,98344.98
2018-03-15T15:57:24.001Z,98351.12
2018-03-15T15:59:51.444Z,98339.64
2018-03-15T16:02:18.881Z,98343.40
2018-03-15T16:04:46.342Z,98333.62
2018-03-15T16:07:13.785Z,98323.45
2018-03-15T16:09:41.286Z,98338.16
2018-03-15T16:12:08.736Z,98322.41
2018-03-15T16:14:36.189Z,98317.70
2018-03-15T16:17:03.650Z,98317.27
2018-03-15T16:19:31.129Z,98314.98
2018-03-15T16:21:58.619Z,98331.72
2018-03-15T16:24:26.077Z,98338.91
2018-03-15T16:26:53.597Z,98339.08
2018-03-15T16:29:21.042Z,98347.53
2018-03-15T16:31:48.482Z,98354.39
2018-03-15T16:34:15.982Z,98364.22
2018-03-15T16:36:43.446Z,98370.97
2018-03-15T16:39:10.943Z,98375.00
2018-03-15T16:41:38.409Z,98380.31
2018-03-15T16:44:05.853Z,98376.98
2018-03-15T16:46:33.332Z,98383.80
2018-03-15T16:49:00.771Z,98386.42
2018-03-15T16:51:28.236Z,98389.64
2018-03-15T16:53:55.713Z,98395.10
2018-03-15T16:56:23.165Z,98389.70
2018-03-15T16:58:50.877Z,98388.47
2018-03-15T17:01:18.313Z,98397.95
2018-03-15T17:03:45.753Z,98397.82
2018-03-15T17:06:13.235Z,98402.50
2018-03-15T17:08:40.674Z,98396.54
2018-03-15T17:11:08.153Z,98400.28
2018-03-15T17:13:35.605Z,98401.00
2018-03-15T17:16:03.118Z,98406.08
2018-03-15T17:18:30.577Z,98408.41
2018-03-15T17:20:58.034Z,98399.87
2018-03-15T17:23:25.698Z,98412.15
2018-03-15T17:25:53.142Z,98406.31
2018-03-15T17:28:20.586Z,98401.81
2018-03-15T17:30:48.055Z,98397.83
2018-03-15T17:33:15.510Z,98384.48
2018-03-15T17:35:42.986Z,98391.04
2018-03-15T17:38:10.432Z,98390.28
2018-03-15T17:40:37.893Z,98377.09
2018-03-15T17:43:05.353Z,98389.56
2018-03-15T17:45:32.806Z,98389.99
2018-03-15T17:48:00.497Z,98398.99
2018-03-15T17:50:28.254Z,98395.92
2018-03-15T17:52:55.706Z,98384.67
2018-03-15T17:55:23.179Z,98385.97
2018-03-15T17:57:50.622Z,98390.38
2018-03-15T18:00:18.149Z,98376.77
2018-03-15T18:02:45.590Z,98376.58
2018-03-15T18:05:13.026Z,98372.09
2018-03-15T18:07:40.494Z,98368.11
2018-03-15T18:10:07.954Z,98366.20
2018-03-15T18:12:35.396Z,98377.00
2018-03-15T18:15:02.859Z,98394.77
2018-03-15T18:17:30.334Z,98408.38
2018-03-15T18:19:57.780Z,98416.05
2018-03-15T18:22:25.404Z,98423.20
2018-03-15T18:24:52.900Z,98432.35
2018-03-15T18:27:20.354Z,98434.72
2018-03-15T18:29:47.846Z,98434.22
2018-03-15T18:32:15.286Z,98438.40
2018-03-15T18:34:42.721Z,98444.03
2018-03-15T18:37:10.610Z,98447.80
2018-03-15T18:39:38.077Z,98444.38
2018-03-15T18:42:05.504Z,98446.48
2018-03-15T18:44:32.957Z,98454.23
2018-03-15T18:47:00.401Z,98454.74
2018-03-15T18:49:27.986Z,98452.09
2018-03-15T18:51:55.421Z,98452.27
2018-03-15T18:54:22.879Z,98450.14
2018-03-15T18:56:50.407Z,98448.25
2018-03-15T18:59:17.878Z,98447.53
2018-03-15T19:01:45.354Z,98441.50
2018-03-15T19:04:12.793Z,98446.89
2018-03-15T19:06:40.226Z,98441.09
2018-03-15T19:09:07.691Z,98447.58
2018-03-15T19:11:35.131Z,98450.66
2018-03-15T19:14:02.613Z,98444.93
2018-03-15T19:16:30.053Z,98456.09
2018-03-15T19:18:57.495Z,98454.20
2018-03-15T19:21:24.957Z,98453.19
2018-03-15T19:23:52.402Z,98456.27
2018-03-15T19:26:20.032Z,98463.59
2018-03-15T19:28:47.474Z,98459.19
2018-03-15T19:31:15.884Z,98470.55
2018-03-15T19:33:43.338Z,98457.86
2018-03-15T19:36:10.777Z,98460.39
2018-03-15T19:38:38.954Z,98462.23
2018-03-15T19:41:06.403Z,98475.23
2018-03-15T19:43:33.882Z,98475.66
2018-03-15T19:46:01.364Z,98478.27
2018-03-15T19:48:28.806Z,98472.46
2018-03-15T19:50:56.540Z,98465.75
2018-03-15T19:53:23.975Z,98477.55
2018-03-15T19:55:51.409Z,98471.09
2018-03-15T19:58:21.222Z,98467.38
2018-03-15T20:00:49.640Z,98463.95
2018-03-15T20:03:17.262Z,98470.58
2018-03-15T20:05:44.697Z,98471.08
2018-03-15T20:08:12.147Z,98481.65
2018-03-15T20:10:39.715Z,98478.06
2018-03-15T20:13:08.458Z,98490.08
2018-03-15T20:15:41.686Z,98492.27
2018-03-15T20:18:09.129Z,98503.30
2018-03-15T20:20:36.572Z,98517.71
2018-03-15T20:23:09.690Z,98521.34
2018-03-15T20:25:37.151Z,98535.84
2018-03-15T20:28:10.738Z,98534.91
2018-03-15T20:30:38.905Z,98537.44
2018-03-15T20:33:12.705Z,98553.02
2018-03-15T20:35:40.160Z,98554.16
2018-03-15T20:38:09.218Z,98556.22
2018-03-15T20:40:42.201Z,98556.34
2018-03-15T20:43:09.646Z,98562.77
2018-03-15T20:45:42.838Z,98557.55
2018-03-15T20:48:15.832Z,98566.44
2018-03-15T20:50:43.618Z,98553.81
2018-03-15T20:53:11.074Z,98553.83
2018-03-15T20:55:38.544Z,98562.28
2018-03-15T20:58:06.019Z,98559.16
2018-03-15T21:00:33.458Z,98561.67
2018-03-15T21:03:00.950Z,98561.08
2018-03-15T21:05:28.393Z,98560.31
2018-03-15T21:07:55.838Z,98556.80
2018-03-15T21:10:23.327Z,98553.52
2018-03-15T21:12:51.725Z,98565.88
2018-03-15T21:15:19.453Z,98566.95
2018-03-15T21:17:46.897Z,98564.59
2018-03-15T21:20:14.346Z,98569.42
2018-03-15T21:22:41.813Z,98568.73
2018-03-15T21:25:09.255Z,98566.23
2018-03-15T21:27:38.156Z,98573.74
2018-03-15T21:30:05.602Z,98576.76
2018-03-15T21:32:33.046Z,98574.98
2018-03-15T21:35:00.517Z,98577.02
2018-03-15T21:37:27.962Z,98571.48
2018-03-15T21:39:55.446Z,98580.75
2018-03-15T21:42:22.897Z,98581.81
2018-03-15T21:44:50.357Z,98585.48
2018-03-15T21:47:17.830Z,98597.39
2018-03-15T21:49:45.273Z,98589.27
2018-03-15T21:52:12.934Z,98592.69
2018-03-15T21:54:40.430Z,98585.92
2018-03-15T21:57:07.872Z,98596.00
2018-03-15T21:59:35.343Z,98598.23
2018-03-15T22:02:02.792Z,98605.23
2018-03-15T22:04:30.366Z,98596.63
2018-03-15T22:06:57.806Z,98599.69
2018-03-15T22:09:25.259Z,98599.82
2018-03-15T22:11:52.743Z,98603.47
2018-03-15T22:14:20.221Z,98604.69
2018-03-15T22:16:47.821Z,98612.81
2018-03-15T22:19:15.262Z,98610.58
2018-03-15T22:21:42.726Z,98613.73
2018-03-15T22:24:10.188Z,98613.93
2018-03-15T22:26:37.645Z,98611.13
2018-03-15T22:29:05.120Z,98608.71
2018-03-15T22:31:32.595Z,98619.58
2018-03-15T22:34:00.054Z,98614.94
2018-03-15T22:36:27.517Z,98618.76
2018-03-15T22:38:54.970Z,98616.88
2018-03-15T22:41:22.470Z,98614.63
2018-03-15T22:43:49.909Z,98625.95
2018-03-15T22:46:17.361Z,98630.23
2018-03-15T22:48:44.827Z,98631.88
2018-03-15T22:51:12.296Z,98631.98
2018-03-15T22:53:39.822Z,98626.94
2018-03-15T22:56:07.423Z,98632.69
2018-03-15T22:58:34.865Z,98640.09
2018-03-15T23:01:02.334Z,98646.09
2018-03-15T23:03:29.801Z,98647.64
2018-03-15T23:05:57.278Z,98658.41
2018-03-15T23:08:24.741Z,98651.30
2018-03-15T23:10:52.184Z,98656.68
2018-03-15T23:13:19.649Z,98654.03
2018-03-15T23:15:47.097Z,98655.75
2018-03-15T23:18:14.754Z,98654.90
2018-03-15T23:20:42.297Z,98664.33
2018-03-15T23:23:09.746Z,98659.03
2018-03-15T23:25:37.209Z,98667.99
2018-03-15T23:28:04.669Z,98666.08
2018-03-15T23:30:32.184Z,98661.89
2018-03-15T23:32:59.645Z,98669.70
2018-03-15T23:35:27.097Z,98666.47
2018-03-15T23:37:54.570Z,98664.27
2018-03-15T23:40:22.033Z,98668.56
2018-03-15T23:42:49.505Z,98663.86
2018-03-15T23:45:16.954Z,98673.95
2018-03-15T23:47:44.398Z,98679.53
2018-03-15T23:50:11.882Z,98675.30
2018-03-15T23:52:39.341Z,98677.98
2018-03-15T23:55:06.823Z,98676.24
2018-03-15T23:57:34.268Z,98680.48
